TimeCST,TemperatureF,Dew PointF,Humidity,Sea Level PressureIn,VisibilityMPH,Wind Direction,Wind SpeedMPH,Gust SpeedMPH,PrecipitationIn,Events,Conditions,WindDirDegrees,DateUTC
12:53 AM,41.0,39.9,96,29.80,4.0,NNW,15.0,-,0.14,Rain,Rain,330,2013-01-13 06:53:00
1:17 AM,39.2,39.2,100,29.85,6.0,NW,15.0,-,0.03,Rain,Light Rain,310,2013-01-13 07:17:00
1:53 AM,37.9,37.0,97,29.89,3.0,NW,12.7,-,0.14,Rain,Heavy Rain,310,2013-01-13 07:53:00
2:09 AM,37.4,35.6,93,29.88,4.0,NNW,11.5,21.9,0.04,Rain,Rain,340,2013-01-13 08:09:00
2:53 AM,36.0,34.0,93,29.93,4.0,NNW,17.3,24.2,0.17,Rain,Rain,330,2013-01-13 08:53:00
3:53 AM,36.0,35.1,97,29.91,3.0,NNW,11.5,-,0.12,Rain,Heavy Rain,340,2013-01-13 09:53:00
4:01 AM,35.6,35.6,100,29.90,2.5,North,10.4,-,0.04,Rain,Heavy Rain,350,2013-01-13 10:01:00
4:27 AM,35.6,35.6,100,29.90,3.0,North,9.2,-,0.12,Rain,Rain,360,2013-01-13 10:27:00
4:53 AM,36.0,35.1,97,29.92,5.0,NNW,15.0,-,0.13,Rain,Light Rain,330,2013-01-13 10:53:00
5:08 AM,37.4,35.6,93,29.94,7.0,NW,12.7,-,0.00,Rain,Light Rain,310,2013-01-13 11:08:00
5:49 AM,37.4,35.6,93,29.92,7.0,North,12.7,-,0.00,Rain,Light Rain,350,2013-01-13 11:49:00
5:53 AM,37.0,35.1,93,29.91,7.0,North,11.5,-,0.00,,Overcast,360,2013-01-13 11:53:00
6:27 AM,37.4,33.8,87,29.94,7.0,NNW,10.4,-,N/A,,Overcast,340,2013-01-13 12:27:00
6:53 AM,37.0,34.0,89,29.95,7.0,NW,12.7,-,N/A,,Overcast,320,2013-01-13 12:53:00
7:11 AM,35.6,33.8,93,29.96,7.0,NNW,12.7,-,N/A,,Overcast,330,2013-01-13 13:11:00
7:33 AM,35.6,33.8,93,29.98,2.0,NNW,11.5,-,0.01,Rain,Light Rain,330,2013-01-13 13:33:00
7:53 AM,36.0,35.1,97,29.98,2.5,NNW,9.2,-,0.01,,Overcast,330,2013-01-13 13:53:00
8:31 AM,35.6,35.6,100,29.97,3.0,NNW,6.9,-,N/A,,Overcast,340,2013-01-13 14:31:00
8:49 AM,35.6,35.6,100,29.99,2.0,NNW,11.5,-,0.00,Rain,Light Rain,340,2013-01-13 14:49:00
8:53 AM,36.0,35.1,97,29.99,2.0,NNW,10.4,-,0.00,Rain,Light Rain,340,2013-01-13 14:53:00
9:05 AM,35.6,35.6,100,30.00,3.0,NW,11.5,-,0.00,,Overcast,310,2013-01-13 15:05:00
9:41 AM,35.6,33.8,93,29.99,1.8,NNW,17.3,-,0.01,Rain,Light Rain,330,2013-01-13 15:41:00
9:53 AM,35.1,34.0,96,30.00,1.5,NNW,16.1,-,0.01,Rain,Light Rain,330,2013-01-13 15:53:00
10:04 AM,35.6,33.8,93,30.00,2.0,NNW,15.0,-,0.00,,Overcast,330,2013-01-13 16:04:00
10:12 AM,33.8,33.8,100,30.00,1.8,NNW,15.0,-,0.00,,Overcast,330,2013-01-13 16:12:00
10:40 AM,33.8,33.8,100,29.97,3.0,North,10.4,-,0.00,,Overcast,360,2013-01-13 16:40:00
10:53 AM,34.0,33.1,96,29.96,4.0,North,6.9,-,0.00,,Overcast,10,2013-01-13 16:53:00
11:08 AM,33.8,33.8,100,29.95,2.0,North,10.4,-,0.01,Rain,Light Rain,360,2013-01-13 17:08:00
11:28 AM,33.8,32.0,93,29.96,3.0,NNW,12.7,-,0.02,Rain,Light Rain,330,2013-01-13 17:28:00
11:36 AM,33.8,32.0,93,29.96,2.5,NNW,12.7,-,0.03,Rain,Rain,330,2013-01-13 17:36:00
11:53 AM,33.1,32.0,96,29.99,1.8,NW,17.3,-,0.05,Rain,Light Rain,320,2013-01-13 17:53:00
12:15 PM,32.0,30.2,93,30.01,0.8,NW,16.1,-,0.07,Rain,Light Freezing Rain,310,2013-01-13 18:15:00
12:25 PM,32.0,30.2,93,30.01,1.2,NW,18.4,26.5,0.09,Rain,Light Freezing Rain,310,2013-01-13 18:25:00
12:37 PM,32.0,30.2,93,29.99,2.0,NW,17.3,-,0.10,Rain,Light Freezing Rain,320,2013-01-13 18:37:00
12:48 PM,32.0,30.2,93,29.99,1.8,NNW,16.1,-,0.10,Rain,Light Freezing Rain,330,2013-01-13 18:48:00
12:53 PM,30.9,30.0,96,30.01,1.5,NW,16.1,-,0.10,Rain,Light Freezing Rain,320,2013-01-13 18:53:00
1:25 PM,32.0,30.2,93,30.01,2.0,NW,16.1,-,0.05,Rain,Light Freezing Rain,320,2013-01-13 19:25:00
1:53 PM,32.0,30.0,92,30.01,2.5,NNW,13.8,-,0.10,Rain,Light Freezing Rain,330,2013-01-13 19:53:00
1:56 PM,32.0,30.2,93,30.00,3.0,NNW,12.7,-,0.00,Rain,Light Freezing Rain,330,2013-01-13 19:56:00
2:29 PM,32.0,30.2,93,30.02,9.0,NNW,15.0,-,0.00,,Overcast,330,2013-01-13 20:29:00
2:36 PM,32.0,30.2,93,30.01,8.0,NNW,12.7,-,0.00,,Overcast,340,2013-01-13 20:36:00
2:53 PM,32.0,30.0,92,30.06,5.0,NW,17.3,-,0.00,Snow,Light Snow,320,2013-01-13 20:53:00
3:53 PM,30.0,28.0,92,30.12,3.0,NW,15.0,-,0.00,,Overcast,310,2013-01-13 21:53:00
4:53 PM,28.9,25.0,85,30.14,5.0,WNW,21.9,-,N/A,,Overcast,300,2013-01-13 22:53:00
5:40 PM,28.4,24.8,86,30.17,6.0,NW,17.3,-,N/A,,Overcast,320,2013-01-13 23:40:00
5:53 PM,27.0,24.1,89,30.19,6.0,NW,16.1,24.2,N/A,,Overcast,310,2013-01-13 23:53:00
6:13 PM,26.6,23.0,86,30.19,6.0,NW,18.4,-,N/A,,Overcast,310,2013-01-14 00:13:00
6:53 PM,27.0,21.9,81,30.21,9.0,NW,18.4,24.2,N/A,,Overcast,320,2013-01-14 00:53:00
7:48 PM,24.8,21.2,86,30.21,9.0,NNW,12.7,21.9,N/A,,Mostly Cloudy,330,2013-01-14 01:48:00
7:53 PM,25.0,21.9,88,30.23,9.0,NNW,11.5,-,N/A,,Mostly Cloudy,330,2013-01-14 01:53:00
8:32 PM,24.8,19.4,80,30.23,10.0,NNW,16.1,-,N/A,,Partly Cloudy,330,2013-01-14 02:32:00
8:53 PM,24.1,19.0,81,30.26,10.0,NW,12.7,-,N/A,,Partly Cloudy,320,2013-01-14 02:53:00
9:21 PM,24.8,19.4,80,30.25,8.0,NW,13.8,-,N/A,,Mostly Cloudy,310,2013-01-14 03:21:00
9:53 PM,23.0,19.0,85,30.29,8.0,NNW,13.8,-,N/A,,Mostly Cloudy,330,2013-01-14 03:53:00
10:53 PM,23.0,18.0,81,30.32,8.0,NNW,13.8,-,N/A,,Scattered Clouds,330,2013-01-14 04:53:00
11:00 PM,23.0,17.6,80,30.32,8.0,NW,15.0,-,N/A,,Mostly Cloudy,320,2013-01-14 05:00:00
11:53 PM,21.9,17.1,82,30.34,8.0,NNW,13.8,-,N/A,,Mostly Cloudy,330,2013-01-14 05:53:00